Time;durP1;ratioP1;P1;durP2;ratioP2;P2;SDS_P1;SDS_P2;PMS_P1;PMS_P2;Temp;Humidity;BMP_temperature;BMP_pressure;BME280_temperature;BME280_humidity;BME280_pressure;Samples;Min_cycle;Max_cycle;Signal;HPM_P1;HPM_P2
2022/09/05 00:01:13;;;;;;;7.75;6.38;;;;;;;17.10;86.41;95208.53;5112848;28;20212;-78
2022/09/05 00:03:49;;;;;;;8.80;6.28;;;;;;;17.15;85.21;95207.47;5113203;28;20285;-76
2022/09/05 00:06:17;;;;;;;8.95;6.00;;;;;;;17.11;86.41;95198.38;5113083;28;20243;-77
2022/09/05 00:08:54;;;;;;;8.00;5.75;;;;;;;17.06;86.85;95207.69;5113226;28;20280;-77
2022/09/05 00:11:26;;;;;;;7.38;5.68;;;;;;;16.99;88.67;95205.53;5112935;28;20225;-78
2022/09/05 00:14:08;;;;;;;11.55;6.30;;;;;;;16.83;90.35;95204.75;5112783;28;20186;-78
2022/09/05 00:16:56;;;;;;;8.55;5.65;;;;;;;16.69;92.54;95207.13;5111746;28;20872;-79
2022/09/05 00:19:37;;;;;;;8.45;6.22;;;;;;;16.51;93.64;95214.84;5112776;28;20719;-77
2022/09/05 00:22:29;;;;;;;8.85;5.82;;;;;;;16.44;93.36;95211.13;5112458;28;20238;-78
2022/09/05 00:25:07;;;;;;;7.90;5.13;;;;;;;16.33;93.79;95214.38;5112807;28;20225;-79
2022/09/05 00:27:46;;;;;;;11.23;6.60;;;;;;;16.25;93.11;95217.28;5112801;28;20198;-79
2022/09/05 00:30:16;;;;;;;13.82;7.70;;;;;;;16.21;93.57;95217.16;5120594;27;20228;-79
2022/09/05 00:33:14;;;;;;;10.70;6.93;;;;;;;16.21;94.01;95210.91;5133168;27;20570;-79
2022/09/05 00:35:53;;;;;;;9.77;6.47;;;;;;;16.19;94.23;95207.72;5128302;27;20624;-78
2022/09/05 00:38:23;;;;;;;10.73;7.03;;;;;;;16.22;93.34;95207.81;5133171;27;20217;-78
2022/09/05 00:40:55;;;;;;;9.82;6.55;;;;;;;16.23;92.56;95208.63;5133123;27;20208;-78
2022/09/05 00:43:26;;;;;;;10.98;7.72;;;;;;;16.21;92.64;95211.69;5132650;27;20197;-79
2022/09/05 00:45:58;;;;;;;13.63;8.20;;;;;;;16.27;92.99;95218.50;5133024;27;20197;-79
2022/09/05 00:48:34;;;;;;;11.55;7.32;;;;;;;16.26;91.74;95225.09;5111721;27;20533;-79
2022/09/05 00:51:16;;;;;;;12.73;8.45;;;;;;;16.26;91.80;95224.34;5111918;28;20739;-80
2022/09/05 00:53:55;;;;;;;12.52;8.43;;;;;;;16.29;91.97;95229.88;5112314;28;20190;-80
2022/09/05 00:56:41;;;;;;;12.07;7.32;;;;;;;16.26;91.49;95219.63;5111743;28;20198;-79
2022/09/05 00:59:42;;;;;;;14.00;8.00;;;;;;;16.31;92.04;95222.13;5111615;28;20560;-79
2022/09/05 01:02:22;;;;;;;8.65;6.38;;;;;;;16.40;90.62;95219.22;5112030;28;20665;-76
2022/09/05 01:04:54;;;;;;;10.10;7.38;;;;;;;16.44;90.50;95219.31;5111812;28;20221;-79
2022/09/05 01:07:39;;;;;;;10.07;7.25;;;;;;;16.46;89.91;95227.97;5111664;28;20194;-80
2022/09/05 01:10:19;;;;;;;12.40;7.07;;;;;;;16.39;90.62;95227.81;5111113;28;20633;-79
2022/09/05 01:13:09;;;;;;;11.07;6.28;;;;;;;16.38;90.62;95232.47;5111463;28;20276;-80
2022/09/05 01:15:48;;;;;;;9.00;6.60;;;;;;;16.41;90.27;95230.97;5110801;28;20247;-80
2022/09/05 01:18:39;;;;;;;9.35;6.70;;;;;;;16.44;90.04;95235.72;5111009;28;20195;-79
2022/09/05 01:21:18;;;;;;;8.27;6.43;;;;;;;16.43;89.11;95234.16;5111820;28;20206;-78
2022/09/05 01:23:57;;;;;;;11.70;7.07;;;;;;;16.45;89.27;95237.31;5111275;28;20228;-79
2022/09/05 01:26:48;;;;;;;10.23;6.03;;;;;;;16.46;89.04;95236.19;5111427;28;20193;-78
2022/09/05 01:29:25;;;;;;;7.97;6.32;;;;;;;16.43;89.01;95228.66;5111115;27;20235;-79
2022/09/05 01:32:14;;;;;;;10.45;7.10;;;;;;;16.47;89.12;95226.84;5132330;27;20226;-78
2022/09/05 01:34:56;;;;;;;12.63;6.55;;;;;;;16.39;89.14;95227.81;5131920;27;20193;-78
2022/09/05 01:37:36;;;;;;;9.55;6.43;;;;;;;16.35;89.00;95223.03;5132052;27;20182;-80
2022/09/05 01:40:15;;;;;;;8.95;6.22;;;;;;;16.37;89.21;95219.16;5131658;27;20193;-79
2022/09/05 01:42:54;;;;;;;9.27;5.85;;;;;;;16.39;88.82;95222.34;5131786;27;20223;-77
2022/09/05 01:45:29;;;;;;;8.65;6.50;;;;;;;16.37;89.03;95214.47;5131423;27;20716;-79
2022/09/05 01:48:04;;;;;;;8.50;6.65;;;;;;;16.40;89.04;95202.81;5114431;27;20261;-79
2022/09/05 01:50:49;;;;;;;8.60;5.88;;;;;;;16.44;89.30;95216.59;5110710;28;20313;-80
2022/09/05 01:53:26;;;;;;;8.77;5.60;;;;;;;16.44;88.71;95219.31;5110939;28;20201;-79
2022/09/05 01:56:17;;;;;;;8.68;5.30;;;;;;;16.43;89.19;95212.25;5110643;28;20701;-79
2022/09/05 01:58:54;;;;;;;7.47;5.78;;;;;;;16.46;88.77;95228.78;5110821;28;20194;-79
2022/09/05 02:01:32;;;;;;;10.27;6.03;;;;;;;16.45;89.14;95216.25;5111259;28;20756;-80
2022/09/05 02:04:20;;;;;;;9.32;7.13;;;;;;;16.42;89.59;95218.88;5110998;28;20278;-79
2022/09/05 02:07:00;;;;;;;9.68;6.72;;;;;;;16.42;89.61;95222.41;5111273;28;20202;-79
2022/09/05 02:09:49;;;;;;;10.55;6.63;;;;;;;16.49;89.63;95232.75;5110847;28;20259;-79
2022/09/05 02:12:28;;;;;;;8.93;6.70;;;;;;;16.41;88.73;95229.03;5110838;28;20591;-79
2022/09/05 02:15:00;;;;;;;10.35;7.07;;;;;;;16.43;89.10;95234.16;5109940;28;20614;-79
2022/09/05 02:17:36;;;;;;;13.43;6.70;;;;;;;16.47;88.13;95224.91;5110408;28;20189;-79
2022/09/05 02:20:13;;;;;;;8.55;6.45;;;;;;;16.46;88.19;95212.38;5110510;28;20613;-79
2022/09/05 02:22:44;;;;;;;8.07;5.72;;;;;;;16.49;87.17;95227.28;5110432;28;20189;-79
2022/09/05 02:25:17;;;;;;;7.60;5.63;;;;;;;16.47;86.85;95211.22;5110640;28;20420;-77
2022/09/05 02:27:50;;;;;;;7.88;3.80;;;;;;;16.43;86.37;95213.06;5110722;28;20190;-79
2022/09/05 02:30:20;;;;;;;7.47;5.35;;;;;;;16.44;87.03;95213.84;5119031;27;20252;-80
2022/09/05 02:33:05;;;;;;;6.25;5.03;;;;;;;16.44;85.82;95224.78;5130790;27;20309;-79
2022/09/05 02:35:44;;;;;;;9.52;5.63;;;;;;;16.44;85.72;95224.78;5130462;27;20203;-79
2022/09/05 02:38:18;;;;;;;6.85;5.28;;;;;;;16.44;85.38;95230.25;5130754;27;20710;-78
2022/09/05 02:40:54;;;;;;;5.88;4.68;;;;;;;16.48;84.96;95225.69;5130571;27;20595;-78
2022/09/05 02:43:31;;;;;;;7.43;4.43;;;;;;;16.42;85.16;95229.81;5130987;27;20601;-79
2022/09/05 02:46:04;;;;;;;6.40;4.45;;;;;;;16.41;85.25;95225.50;5130823;27;20307;-78
2022/09/05 02:48:52;;;;;;;6.47;4.88;;;;;;;16.39;84.70;95222.34;5110337;28;20189;-79
2022/09/05 02:51:25;;;;;;;6.35;4.25;;;;;;;16.41;83.94;95226.28;5109817;28;20186;-78
2022/09/05 02:53:56;;;;;;;8.45;4.00;;;;;;;16.40;82.92;95234.88;5109932;28;20671;-75
2022/09/05 02:56:51;;;;;;;4.25;3.53;;;;;;;16.35;83.85;95233.97;5110434;28;20190;-78
2022/09/05 02:59:36;;;;;;;5.85;4.10;;;;;;;16.31;83.92;95233.06;5111661;28;20616;-79
2022/09/05 03:02:15;;;;;;;5.68;3.80;;;;;;;16.31;84.13;95227.59;5114332;28;20225;-78
2022/09/05 03:04:49;;;;;;;4.97;3.40;;;;;;;16.33;84.16;95241.72;5114238;28;20687;-79
2022/09/05 03:07:42;;;;;;;8.63;4.32;;;;;;;16.30;84.33;95236.94;5114591;28;20193;-78
2022/09/05 03:10:25;;;;;;;5.40;3.60;;;;;;;16.29;84.46;95240.81;5114150;28;20193;-79
2022/09/05 03:13:26;;;;;;;5.72;4.28;;;;;;;16.32;84.39;95240.13;5114324;28;20637;-76
2022/09/05 03:16:25;;;;;;;5.63;4.13;;;;;;;16.31;84.14;95241.28;5114178;28;20205;-79
2022/09/05 03:19:50;;;;;;;5.50;4.13;;;;;;;16.32;84.36;95231.91;5113913;28;20206;-78
2022/09/05 03:22:41;;;;;;;6.22;3.88;;;;;;;16.31;84.34;95244.00;5050112;28;20615;-79
2022/09/05 03:25:37;;;;;;;8.10;4.30;;;;;;;16.26;84.52;95244.25;5113632;28;20671;-78
2022/09/05 03:28:41;;;;;;;5.97;2.80;;;;;;;16.26;83.45;95238.78;5114210;28;20190;-78
2022/09/05 03:31:25;;;;;;;6.15;3.85;;;;;;;16.27;84.43;95236.84;5129305;27;20220;-78
2022/09/05 03:34:22;;;;;;;5.32;3.30;;;;;;;16.23;84.21;95242.22;5134571;27;20189;-77
2022/09/05 03:37:36;;;;;;;3.83;3.22;;;;;;;16.29;84.16;95246.28;5120919;27;20197;-78
2022/09/05 03:40:33;;;;;;;5.22;3.50;;;;;;;16.34;84.13;95243.31;5105107;27;20269;-77
2022/09/05 03:43:28;;;;;;;7.82;3.90;;;;;;;16.35;84.05;95250.38;5133498;27;20601;-77
2022/09/05 03:46:10;;;;;;;4.47;3.20;;;;;;;16.34;83.58;95251.50;5133917;27;20731;-77
2022/09/05 03:48:59;;;;;;;3.63;2.88;;;;;;;16.33;84.02;95258.13;5113875;28;20235;-76
2022/09/05 03:51:35;;;;;;;5.75;4.00;;;;;;;16.33;84.54;95255.38;5112550;28;20725;-77
2022/09/05 03:54:24;;;;;;;5.78;3.78;;;;;;;16.33;84.50;95258.13;5113217;28;20190;-76
2022/09/05 03:57:08;;;;;;;8.82;4.82;;;;;;;16.32;84.46;95262.00;5113507;28;20297;-78
2022/09/05 03:59:57;;;;;;;7.95;4.72;;;;;;;16.34;84.55;95276.13;5113358;28;20198;-78
2022/09/05 04:02:28;;;;;;;6.65;4.47;;;;;;;16.34;84.32;95286.25;5109734;28;20717;-78
2022/09/05 04:05:03;;;;;;;7.32;4.10;;;;;;;16.25;84.67;95275.50;5113230;28;20309;-77
2022/09/05 04:07:34;;;;;;;4.82;4.25;;;;;;;16.16;85.04;95277.53;5113027;28;20541;-77
2022/09/05 04:10:07;;;;;;;4.72;3.97;;;;;;;16.13;85.26;95280.97;5112170;28;20673;-76
2022/09/05 04:12:38;;;;;;;5.47;4.05;;;;;;;16.16;85.11;95280.28;5112855;28;20188;-77
2022/09/05 04:15:09;;;;;;;4.35;3.47;;;;;;;16.12;85.36;95284.06;5112723;28;20472;-74
2022/09/05 04:17:42;;;;;;;5.85;4.53;;;;;;;16.12;84.89;95287.59;5113064;28;20198;-78
2022/09/05 04:20:15;;;;;;;5.07;4.15;;;;;;;16.12;85.37;95290.34;5112345;28;20649;-78
2022/09/05 04:23:08;;;;;;;7.90;4.65;;;;;;;16.13;85.62;95291.91;5112644;28;20213;-78
2022/09/05 04:25:54;;;;;;;5.65;4.30;;;;;;;16.14;85.06;95298.97;5112290;28;20320;-78
2022/09/05 04:28:35;;;;;;;6.03;4.80;;;;;;;16.15;84.80;95300.56;5112996;28;20182;-78
2022/09/05 04:31:12;;;;;;;8.00;4.10;;;;;;;16.28;84.18;95302.09;5127237;27;20229;-79
2022/09/05 04:33:47;;;;;;;7.57;4.40;;;;;;;16.45;83.48;95313.91;5133559;27;20181;-77
2022/09/05 04:36:19;;;;;;;6.47;4.53;;;;;;;16.54;82.26;95300.88;5133576;27;20261;-77
2022/09/05 04:39:05;;;;;;;5.63;3.78;;;;;;;16.60;81.48;95313.16;5133170;27;20568;-77
2022/09/05 04:41:38;;;;;;;6.28;4.53;;;;;;;16.58;81.99;95312.72;5132685;27;20636;-77
2022/09/05 04:44:08;;;;;;;8.13;4.55;;;;;;;16.63;82.10;95315.25;5133429;27;20308;-78
2022/09/05 04:46:41;;;;;;;6.15;4.75;;;;;;;16.56;82.62;95328.66;5127558;27;20222;-76
2022/09/05 04:49:11;;;;;;;5.55;3.70;;;;;;;16.65;82.64;95319.22;5111655;28;20189;-77
2022/09/05 04:52:07;;;;;;;5.13;3.78;;;;;;;16.68;83.27;95320.44;5111440;28;20660;-79
2022/09/05 04:54:40;;;;;;;13.25;4.18;;;;;;;16.72;82.89;95326.00;5075888;28;20254;-78
2022/09/05 04:57:20;;;;;;;6.00;4.70;;;;;;;16.72;82.65;95334.22;5111896;28;20186;-77
2022/09/05 04:59:55;;;;;;;5.68;3.55;;;;;;;16.75;82.22;95349.94;5112475;28;20212;-76
2022/09/05 05:02:32;;;;;;;6.40;4.35;;;;;;;16.78;82.08;95339.09;5111704;28;20262;-78
2022/09/05 05:05:01;;;;;;;5.30;3.92;;;;;;;16.86;81.25;95346.34;5111406;28;20196;-77
2022/09/05 05:07:45;;;;;;;8.63;4.53;;;;;;;16.81;80.75;95343.84;5112163;28;20190;-77
2022/09/05 05:10:21;;;;;;;9.13;4.25;;;;;;;16.82;80.46;95350.94;5112040;28;20194;-77
2022/09/05 05:13:02;;;;;;;5.18;4.15;;;;;;;16.99;80.31;95356.09;5111988;28;20181;-78
2022/09/05 05:15:32;;;;;;;6.40;4.72;;;;;;;17.05;80.28;95353.91;5111914;28;20189;-78
2022/09/05 05:18:10;;;;;;;6.78;4.50;;;;;;;17.12;79.84;95353.28;5112260;28;20190;-79
2022/09/05 05:20:43;;;;;;;11.45;4.72;;;;;;;17.34;79.99;95359.00;5111354;28;20197;-79
2022/09/05 05:23:14;;;;;;;5.22;3.72;;;;;;;17.53;78.44;95363.75;5110930;28;20221;-78
2022/09/05 05:25:47;;;;;;;6.00;4.35;;;;;;;17.53;78.84;95361.00;5111707;28;20237;-78
2022/09/05 05:28:25;;;;;;;6.45;5.68;;;;;;;17.56;79.29;95368.53;5111208;28;20563;-77
2022/09/05 05:30:52;;;;;;;5.88;4.45;;;;;;;17.52;78.93;95373.09;5124748;27;20224;-77
2022/09/05 05:33:26;;;;;;;8.63;4.85;;;;;;;17.41;77.90;95369.31;5132049;27;20209;-77
2022/09/05 05:35:55;;;;;;;7.53;6.07;;;;;;;17.58;78.54;95374.44;5131768;27;20185;-77
2022/09/05 05:38:30;;;;;;;9.30;6.25;;;;;;;17.83;77.99;95372.34;5132186;27;20232;-77
2022/09/05 05:41:05;;;;;;;6.78;5.90;;;;;;;17.91;76.88;95373.28;5131959;27;20196;-76
2022/09/05 05:43:38;;;;;;;6.63;4.53;;;;;;;18.91;73.98;95371.59;5131771;27;20355;-78
2022/09/05 05:46:06;;;;;;;7.57;5.95;;;;;;;19.05;72.08;95376.56;5131126;27;20324;-78
2022/09/05 05:48:37;;;;;;;8.85;6.15;;;;;;;19.65;69.44;95371.41;5111034;28;20194;-77
2022/09/05 05:51:27;;;;;;;6.85;5.43;;;;;;;19.42;70.08;95376.84;5111193;28;20190;-77
2022/09/05 05:54:01;;;;;;;6.20;5.15;;;;;;;19.13;71.33;95379.06;5110576;28;20186;-77
2022/09/05 05:56:51;;;;;;;11.30;4.75;;;;;;;19.33;71.52;95373.56;5110833;28;20682;-77
2022/09/05 05:59:45;;;;;;;5.70;4.68;;;;;;;19.31;71.41;95384.09;5108839;28;20808;-76
2022/09/05 06:02:39;;;;;;;8.18;5.05;;;;;;;19.46;71.17;95369.47;5111315;28;20231;-78
2022/09/05 06:05:27;;;;;;;9.75;5.20;;;;;;;19.61;70.14;95376.84;5101843;28;20210;-78
2022/09/05 06:08:07;;;;;;;9.15;5.10;;;;;;;20.36;67.92;95370.59;5110163;28;20808;-77
2022/09/05 06:11:01;;;;;;;8.07;5.07;;;;;;;21.90;64.14;95366.41;5110357;28;20608;-77
2022/09/05 06:13:59;;;;;;;6.25;4.60;;;;;;;24.34;56.39;95359.41;5110136;28;20250;-78
2022/09/05 06:16:55;;;;;;;9.75;4.15;;;;;;;26.30;50.33;95348.13;5110189;28;20598;-77
2022/09/05 06:19:53;;;;;;;5.47;3.88;;;;;;;26.20;49.08;95355.31;5110702;28;20190;-77
2022/09/05 06:23:03;;;;;;;4.53;4.07;;;;;;;25.85;48.98;95356.41;5111060;28;20185;-78
2022/09/05 06:25:58;;;;;;;4.40;3.75;;;;;;;26.76;47.90;95348.44;5110320;28;20214;-78
2022/09/05 06:28:31;;;;;;;6.65;4.07;;;;;;;26.87;46.72;95353.88;5110291;28;20205;-78
2022/09/05 06:31:29;;;;;;;4.10;3.63;;;;;;;27.05;46.23;95360.06;5124551;27;20598;-78
2022/09/05 06:34:12;;;;;;;5.05;3.75;;;;;;;25.41;50.36;95377.28;5130718;27;20195;-78
2022/09/05 06:36:51;;;;;;;5.15;3.85;;;;;;;25.19;50.53;95381.34;5130842;27;20193;-79
2022/09/05 06:39:28;;;;;;;5.35;4.10;;;;;;;23.22;54.38;95390.09;5131202;27;20261;-78
2022/09/05 06:42:15;;;;;;;5.43;4.18;;;;;;;22.93;55.10;95385.66;5130764;27;20185;-77
2022/09/05 06:45:05;;;;;;;6.90;4.40;;;;;;;23.85;52.72;95388.66;5130815;27;20196;-77
2022/09/05 06:47:35;;;;;;;4.40;3.58;;;;;;;22.78;55.91;95392.28;5118153;27;20221;-78
2022/09/05 06:50:10;;;;;;;7.00;5.22;;;;;;;22.90;55.02;95394.69;5110184;28;20242;-77
2022/09/05 06:53:04;;;;;;;6.93;4.93;;;;;;;22.07;57.43;95402.81;5110304;28;20219;-77
2022/09/05 06:55:57;;;;;;;7.05;4.60;;;;;;;22.37;57.71;95395.16;5109668;28;20276;-77
2022/09/05 06:58:58;;;;;;;5.25;4.60;;;;;;;22.04;58.34;95403.59;5110037;28;20617;-78
2022/09/05 07:01:27;;;;;;;4.60;3.70;;;;;;;24.09;52.62;95396.19;5109715;28;20193;-79
2022/09/05 07:04:13;;;;;;;4.97;4.00;;;;;;;24.93;49.74;95390.13;5109805;28;20716;-78
2022/09/05 07:06:59;;;;;;;4.93;3.92;;;;;;;25.05;48.72;95384.97;5109900;28;20689;-78
2022/09/05 07:09:31;;;;;;;4.85;3.83;;;;;;;24.79;49.94;95386.22;5109879;28;20312;-79
2022/09/05 07:12:13;;;;;;;4.82;3.25;;;;;;;24.18;50.82;95387.50;5109382;28;20190;-78
2022/09/05 07:14:52;;;;;;;5.00;4.15;;;;;;;24.29;49.42;95387.53;5109458;28;20238;-78
2022/09/05 07:17:24;;;;;;;4.72;3.65;;;;;;;24.62;48.12;95375.97;5109701;28;20182;-79
2022/09/05 07:19:55;;;;;;;4.15;3.75;;;;;;;24.75;48.35;95373.56;5110153;28;20278;-78
2022/09/05 07:22:34;;;;;;;4.93;2.97;;;;;;;24.10;48.26;95381.16;5110059;28;20194;-78
2022/09/05 07:25:05;;;;;;;4.85;3.50;;;;;;;24.02;49.98;95384.34;5110218;28;20242;-78
2022/09/05 07:27:37;;;;;;;5.38;3.30;;;;;;;24.28;50.13;95377.63;5109137;28;20235;-77
2022/09/05 07:30:06;;;;;;;3.33;2.60;;;;;;;24.16;48.76;95375.22;5116831;28;20266;-76
2022/09/05 07:32:41;;;;;;;4.97;2.90;;;;;;;24.01;50.47;95375.25;5129097;28;20933;-79
2022/09/05 07:35:16;;;;;;;5.75;3.50;;;;;;;24.31;50.21;95374.84;5130233;28;20189;-78
2022/09/05 07:37:46;;;;;;;5.25;3.45;;;;;;;23.87;50.80;95369.69;5130567;27;20212;-78
2022/09/05 07:40:17;;;;;;;3.75;2.92;;;;;;;24.36;48.82;95362.56;5130460;28;20636;-78
2022/09/05 07:42:50;;;;;;;5.47;2.90;;;;;;;24.10;48.93;95372.06;5130630;28;20201;-78
2022/09/05 07:45:24;;;;;;;6.13;2.63;;;;;;;23.44;49.78;95379.09;5131971;27;20188;-76
2022/09/05 07:47:58;;;;;;;4.50;2.53;;;;;;;23.55;49.96;95379.94;5118964;27;20272;-78
2022/09/05 07:50:27;;;;;;;5.00;2.72;;;;;;;23.44;50.24;95374.34;5113598;28;20197;-78
2022/09/05 07:52:58;;;;;;;3.30;2.80;;;;;;;23.53;49.50;95382.28;5113826;28;20284;-78
2022/09/05 07:55:29;;;;;;;4.05;2.42;;;;;;;22.69;50.64;95382.31;5113814;28;20266;-78
2022/09/05 07:57:59;;;;;;;6.18;2.85;;;;;;;22.53;51.46;95381.06;5112637;28;20201;-77
2022/09/05 08:00:28;;;;;;;4.43;2.95;;;;;;;22.88;51.74;95380.47;5113239;28;20212;-78
2022/09/05 08:02:55;;;;;;;3.38;2.70;;;;;;;23.17;50.16;95376.66;5113086;28;20615;-79
2022/09/05 08:05:25;;;;;;;2.85;2.63;;;;;;;23.42;50.52;95385.00;5113504;28;20603;-78
2022/09/05 08:07:57;;;;;;;2.83;2.47;;;;;;;23.29;49.12;95383.78;5112985;28;20258;-78
2022/09/05 08:10:29;;;;;;;3.05;2.40;;;;;;;23.35;49.03;95383.03;5113257;28;20194;-78
2022/09/05 08:13:02;;;;;;;3.80;3.40;;;;;;;22.66;52.88;95396.94;5113153;28;20243;-76
2022/09/05 08:15:30;;;;;;;5.38;3.55;;;;;;;22.65;52.91;95383.50;5112780;28;20289;-80
2022/09/05 08:18:10;;;;;;;5.63;3.10;;;;;;;23.42;51.67;95386.97;5113121;28;20327;-80
2022/09/05 08:20:44;;;;;;;4.00;3.00;;;;;;;22.85;52.64;95372.97;5113068;28;20194;-78
2022/09/05 08:23:26;;;;;;;4.63;3.13;;;;;;;22.18;54.23;95392.66;5113078;28;20225;-79
2022/09/05 08:26:00;;;;;;;4.68;3.10;;;;;;;21.97;54.73;95385.78;5112908;28;20274;-79
2022/09/05 08:28:33;;;;;;;4.45;3.30;;;;;;;22.06;54.26;95385.47;5112439;28;20193;-80
2022/09/05 08:31:06;;;;;;;5.82;3.42;;;;;;;22.83;53.79;95392.69;5126871;27;20221;-80
2022/09/05 08:33:36;;;;;;;5.35;3.10;;;;;;;22.90;51.91;95383.66;5132991;27;20189;-78
2022/09/05 08:36:08;;;;;;;4.15;2.85;;;;;;;22.66;52.44;95385.88;5132644;27;20197;-77
2022/09/05 08:38:39;;;;;;;3.70;3.10;;;;;;;22.88;51.68;95386.78;5132396;27;20300;-79
2022/09/05 08:41:14;;;;;;;3.53;2.90;;;;;;;23.17;50.24;95382.19;5132295;27;20186;-80
2022/09/05 08:43:54;;;;;;;4.93;3.47;;;;;;;22.87;51.94;95387.19;5132021;27;20275;-76
2022/09/05 08:46:28;;;;;;;4.60;2.70;;;;;;;23.35;50.77;95376.72;5129938;27;20262;-78
2022/09/05 08:49:14;;;;;;;2.72;2.40;;;;;;;23.32;49.51;95381.03;5112169;28;20228;-77
2022/09/05 08:51:45;;;;;;;4.35;2.70;;;;;;;22.74;50.72;95380.38;5112385;28;20201;-78
2022/09/05 08:54:22;;;;;;;4.35;2.40;;;;;;;21.97;53.23;95385.78;5112256;28;20709;-77
2022/09/05 08:57:03;;;;;;;2.90;2.45;;;;;;;21.26;54.15;95387.88;5111423;28;20648;-79
2022/09/05 08:59:42;;;;;;;5.80;2.67;;;;;;;21.48;54.34;95385.31;5111820;28;20186;-79
2022/09/05 09:02:57;;;;;;;3.60;2.55;;;;;;;22.19;53.02;95386.75;5112196;28;20238;-78
2022/09/05 09:05:46;;;;;;;3.92;2.88;;;;;;;22.56;53.54;95386.59;5075280;28;20202;-78
2022/09/05 09:08:16;;;;;;;2.60;2.38;;;;;;;21.98;51.68;95373.56;5112196;28;20221;-76
2022/09/05 09:10:56;;;;;;;3.38;2.88;;;;;;;21.89;52.51;95386.88;5111924;28;20197;-77
2022/09/05 09:13:34;;;;;;;3.00;2.50;;;;;;;22.38;51.02;95379.41;5112517;28;20229;-79
2022/09/05 09:16:07;;;;;;;3.78;2.65;;;;;;;22.09;51.30;95383.91;5112289;28;20234;-78
2022/09/05 09:18:44;;;;;;;3.65;2.60;;;;;;;22.33;50.98;95380.53;5111752;28;20193;-78
2022/09/05 09:21:25;;;;;;;3.67;2.80;;;;;;;22.38;50.35;95385.72;5112113;28;20193;-79
2022/09/05 09:24:02;;;;;;;2.75;2.47;;;;;;;22.21;50.42;95387.16;5112136;28;20245;-79
2022/09/05 09:26:36;;;;;;;3.75;2.90;;;;;;;22.15;52.68;95387.91;5111912;28;20610;-80
2022/09/05 09:29:06;;;;;;;5.82;3.03;;;;;;;22.38;50.56;95379.41;5111342;28;20186;-79
2022/09/05 09:31:56;;;;;;;4.15;2.60;;;;;;;22.88;50.29;95386.78;5130370;27;20212;-79
2022/09/05 09:34:37;;;;;;;2.92;2.55;;;;;;;23.51;49.06;95379.13;5132241;27;20181;-79
2022/09/05 09:37:33;;;;;;;4.90;3.05;;;;;;;23.63;49.28;95382.34;5131376;27;20853;-79
2022/09/05 09:40:27;;;;;;;2.75;2.30;;;;;;;24.10;46.61;95367.31;5132032;27;20192;-79
2022/09/05 09:43:01;;;;;;;3.80;2.80;;;;;;;24.39;47.01;95370.09;5132296;27;20200;-79
2022/09/05 09:45:40;;;;;;;3.47;2.70;;;;;;;24.43;46.71;95370.88;5131756;27;20182;-79
2022/09/05 09:48:43;;;;;;;2.85;2.47;;;;;;;24.85;46.03;95355.34;5113666;27;20220;-79
2022/09/05 09:51:43;;;;;;;4.25;2.83;;;;;;;24.27;45.94;95364.97;5111380;28;20585;-78
2022/09/05 09:54:39;;;;;;;4.35;2.67;;;;;;;24.17;46.64;95354.66;5106534;28;20201;-79
2022/09/05 09:57:46;;;;;;;3.92;2.28;;;;;;;24.79;45.64;95341.88;5110934;28;20205;-79
2022/09/05 10:00:20;;;;;;;3.22;2.83;;;;;;;24.56;44.50;95349.88;5108493;28;20298;-78
2022/09/05 10:03:21;;;;;;;3.00;2.70;;;;;;;23.92;46.87;95363.75;5109865;28;20230;-78
2022/09/05 10:06:08;;;;;;;3.63;2.60;;;;;;;23.08;46.77;95362.41;5110612;28;20273;-81
2022/09/05 10:08:49;;;;;;;4.75;2.97;;;;;;;23.17;47.96;95354.53;5109779;28;20745;-78
2022/09/05 10:11:38;;;;;;;3.05;2.33;;;;;;;23.31;47.66;95349.03;5110596;28;20185;-79
2022/09/05 10:15:01;;;;;;;2.92;2.35;;;;;;;23.53;44.95;95344.34;5104873;28;20284;-79
2022/09/05 10:17:51;;;;;;;5.10;2.17;;;;;;;23.36;46.78;95340.38;5110473;28;20251;-78
2022/09/05 10:20:43;;;;;;;2.63;2.33;;;;;;;23.92;45.63;95322.22;5110603;28;20214;-79
2022/09/05 10:23:28;;;;;;;3.75;2.10;;;;;;;24.33;45.11;95325.38;5110186;28;20764;-79
2022/09/05 10:26:16;;;;;;;2.55;2.28;;;;;;;24.02;44.25;95321.47;5110423;28;20211;-76
2022/09/05 10:28:58;;;;;;;6.18;2.42;;;;;;;24.74;44.41;95317.34;5110717;28;20282;-78
2022/09/05 10:31:46;;;;;;;4.75;2.35;;;;;;;24.19;45.26;95319.06;5127906;27;20225;-79
2022/09/05 10:34:18;;;;;;;3.28;2.40;;;;;;;24.16;44.46;95325.41;5130683;27;20603;-78
2022/09/05 10:36:50;;;;;;;3.95;2.70;;;;;;;24.03;46.30;95313.94;5130991;27;20189;-79
2022/09/05 10:39:19;;;;;;;2.50;2.08;;;;;;;23.84;45.72;95309.59;5130810;27;20272;-78
2022/09/05 10:41:52;;;;;;;3.08;2.42;;;;;;;23.45;45.33;95312.31;5130837;27;20205;-79
2022/09/05 10:44:28;;;;;;;5.43;2.67;;;;;;;23.15;46.06;95318.19;5130908;27;20245;-78
2022/09/05 10:47:06;;;;;;;2.50;2.20;;;;;;;23.03;46.43;95322.09;5123457;27;20212;-78
2022/09/05 10:49:42;;;;;;;2.72;2.40;;;;;;;23.65;46.80;95312.75;5110158;28;20640;-79
2022/09/05 10:52:12;;;;;;;2.90;2.50;;;;;;;24.23;44.86;95303.25;5110199;28;20258;-78
2022/09/05 10:54:51;;;;;;;2.85;2.20;;;;;;;24.32;44.51;95309.19;5110051;28;20182;-79
2022/09/05 10:57:31;;;;;;;5.45;2.38;;;;;;;24.39;44.40;95307.16;5110240;28;20182;-78
2022/09/05 11:00:09;;;;;;;4.97;2.70;;;;;;;23.90;44.84;95298.94;5109961;28;20194;-77
2022/09/05 11:02:40;;;;;;;3.15;2.40;;;;;;;24.15;45.28;95307.19;5109342;28;20244;-79
2022/09/05 11:05:21;;;;;;;3.13;2.28;;;;;;;24.46;43.74;95303.59;5109860;28;20447;-77
2022/09/05 11:07:57;;;;;;;4.80;2.30;;;;;;;25.31;43.04;95303.22;5108886;28;20726;-80
2022/09/05 11:10:31;;;;;;;3.08;2.58;;;;;;;26.27;41.90;95287.78;5109391;28;20188;-79
2022/09/05 11:13:10;;;;;;;4.93;2.92;;;;;;;25.10;42.61;95308.91;5109115;28;20238;-79
2022/09/05 11:15:53;;;;;;;5.22;2.70;;;;;;;25.69;43.21;95292.31;5109399;28;20185;-78
2022/09/05 11:18:45;;;;;;;3.65;2.40;;;;;;;26.28;41.53;95283.81;5110207;28;20185;-79
2022/09/05 11:21:21;;;;;;;3.63;2.75;;;;;;;26.04;41.28;95280.88;5112493;28;20182;-79
2022/09/05 11:23:54;;;;;;;2.95;2.63;;;;;;;24.97;43.34;95288.38;5114146;28;20221;-78
2022/09/05 11:26:32;;;;;;;3.25;2.83;;;;;;;23.97;46.23;95296.94;5114053;28;20190;-77
2022/09/05 11:29:05;;;;;;;3.42;2.58;;;;;;;23.44;47.85;95290.59;5113693;28;20212;-78
2022/09/05 11:31:45;;;;;;;3.05;2.75;;;;;;;23.32;47.28;95292.56;5133108;27;20182;-79
2022/09/05 11:34:58;;;;;;;2.90;2.53;;;;;;;23.18;47.29;95294.50;5134392;27;20184;-78
2022/09/05 11:37:53;;;;;;;2.78;2.40;;;;;;;22.74;48.03;95292.78;5133863;27;20225;-79
2022/09/05 11:40:34;;;;;;;3.42;2.72;;;;;;;23.25;48.13;95288.97;5130175;27;20696;-81
2022/09/05 11:43:43;;;;;;;2.75;2.45;;;;;;;23.68;47.20;95285.09;5134108;27;20574;-78
2022/09/05 11:46:24;;;;;;;6.13;2.58;;;;;;;24.18;46.78;95273.19;5132788;27;20663;-79
2022/09/05 11:49:41;;;;;;;4.45;2.78;;;;;;;24.46;46.25;95273.13;5113752;28;20221;-79
2022/09/05 11:53:07;;;;;;;2.88;2.58;;;;;;;24.76;43.70;95270.59;5113109;28;20194;-79
2022/09/05 11:56:00;;;;;;;4.25;2.50;;;;;;;23.85;44.37;95266.09;5082974;28;20664;-78
2022/09/05 11:58:49;;;;;;;5.50;2.40;;;;;;;23.94;45.10;95264.50;5099608;28;20198;-79
2022/09/05 12:01:27;;;;;;;2.67;2.38;;;;;;;24.10;44.60;95267.66;5113373;28;20234;-78
2022/09/05 12:04:15;;;;;;;2.85;2.28;;;;;;;23.88;45.14;95266.09;5112864;28;20565;-79
2022/09/05 12:07:10;;;;;;;2.85;2.40;;;;;;;24.24;46.19;95266.06;5112923;28;20199;-80
2022/09/05 12:09:52;;;;;;;3.08;2.42;;;;;;;23.90;45.70;95255.44;5095126;28;20197;-77
2022/09/05 12:12:28;;;;;;;2.70;2.50;;;;;;;23.96;45.06;95253.81;5111766;28;20750;-76
2022/09/05 12:15:09;;;;;;;4.72;2.50;;;;;;;23.45;47.45;95253.44;5112471;28;20188;-80
2022/09/05 12:17:47;;;;;;;3.42;2.50;;;;;;;23.03;47.45;95250.25;5112806;28;20721;-80
2022/09/05 12:20:21;;;;;;;3.40;2.53;;;;;;;22.77;47.71;95247.03;5113134;28;20682;-79
2022/09/05 12:22:55;;;;;;;4.30;2.72;;;;;;;22.74;48.39;95261.59;5113059;28;20626;-80
2022/09/05 12:25:32;;;;;;;3.25;2.72;;;;;;;22.72;48.92;95255.66;5112873;28;20713;-79
2022/09/05 12:28:05;;;;;;;3.85;2.42;;;;;;;22.51;47.99;95262.69;5112647;28;20217;-77
2022/09/05 12:30:36;;;;;;;3.97;2.60;;;;;;;22.64;47.01;95263.94;5123518;27;20322;-78
2022/09/05 12:33:18;;;;;;;4.68;2.30;;;;;;;22.95;48.06;95264.47;5131221;27;20181;-80
2022/09/05 12:35:52;;;;;;;3.85;2.55;;;;;;;23.11;46.62;95262.09;5133080;27;20632;-79